• Join FlightAware (Why Join?)
  • Login
  • US Flag 
09:13AM EDT


 

Airport Tracker/Info


-or-


 

Live Flight TrackerFlight Track Log ✈ RPA3159 ✈ 04-Jul-2013 ✈ KPHL - KJAX

Flight Track Log - Related Links

Times and Time Zones

All times are in EDT time to prevent confusion due to time zone crossing. See the RPA3159 flight status page for this flight to view local times or setup timezone preferences in your user account.

Time Position Orientation Groundspeed Altitude Reporting Facility
EDT Latitude Longitude Course Direction KTS MPH feet Rate Location/Type
02:00PM 39.8667 -75.2833 194° South 147 169 800  Level Philadelphia TRACON
02:01PM 39.8167 -75.3167 207° Southwest 200 230 2,000 1,620 Climbing Philadelphia TRACON
02:02PM 39.7667 -75.3667 218° Southwest 265 305 4,300 2,340 Climbing Philadelphia TRACON
02:03PM 39.5667 -75.3033 189° South  Level FlightAware Approximate
02:03PM 39.6833 -75.3667 180° South 264 304 7,000  Level Philadelphia TRACON
02:04PM 39.4644 -75.3285 194° South  Level FlightAware Approximate
02:04PM 39.6156 -75.3706 183° South 273 314 9,400  Level Washington Center
02:05PM 39.3609 -75.3414 185° South  Level FlightAware Approximate
02:05PM 39.5342 -75.3736 182° South 273 314 11,100  Level Washington Center
02:06PM 39.2577 -75.3586 194° South  Level FlightAware Approximate
02:06PM 39.4467 -75.3739 180° South 296 341 13,700  Level Washington Center
02:07PM 39.3569 -75.3769 182° South 316 364 15,700 1,140 Climbing Washington Center
02:08PM 39.2611 -75.3797 181° South 331 381 16,000 120 Climbing Washington Center
02:09PM 39.1675 -75.3881 184° South 342 394 16,000 420 Level Washington Center
02:10PM 39.0736 -75.4017 186° South 348 400 16,900 1,260 Climbing Washington Center
02:11PM 38.9778 -75.4153 186° South 348 400 18,600 1,860 Climbing Washington Center
02:12PM 38.8819 -75.4317 188° South 348 400 20,600 1,860 Climbing Washington Center
02:13PM 38.7881 -75.4717 198° South 353 406 22,400 1,680 Climbing Washington Center
02:14PM 38.7028 -75.5383 211° Southwest 358 412 24,000 1,620 Climbing Washington Center
02:15PM 38.6131 -75.6050 210° Southwest 369 425 25,700 1,440 Climbing Washington Center
02:16PM 38.5256 -75.6739 212° Southwest 379 436 27,000 1,200 Climbing Washington Center
02:17PM 38.4336 -75.7428 210° Southwest 384 442 28,100 1,020 Climbing Washington Center
02:18PM 38.3397 -75.8167 212° Southwest 384 442 29,100 1,020 Climbing Washington Center
02:19PM 38.2436 -75.8825 208° Southwest 395 455 30,200 900 Climbing Washington Center
02:20PM 38.1475 -75.9561 211° Southwest 400 460 31,000 960 Climbing Washington Center
02:21PM 38.0494 -76.0294 211° Southwest 406 467 32,200 1,080 Climbing Washington Center
02:22PM 37.9553 -76.1000 211° Southwest 406 467 33,200 840 Climbing Washington Center
02:23PM 37.8611 -76.1706 211° Southwest 406 467 34,000 360 Climbing Washington Center
02:24PM 37.7647 -76.2433 211° Southwest 401 461 34,000  Level Washington Center
02:25PM 37.6725 -76.3108 210° Southwest 401 461 34,000  Level Washington Center
02:26PM 37.5783 -76.3781 210° Southwest 401 461 34,000  Level Washington Center
02:27PM 37.4839 -76.4475 210° Southwest 401 461 34,000  Level Washington Center
02:28PM 37.3897 -76.5172 210° Southwest 401 461 34,000  Level Washington Center
02:29PM 37.2953 -76.5867 210° Southwest 401 461 34,000  Level Washington Center
02:30PM 37.2008 -76.6558 210° Southwest 401 461 34,000  Level Washington Center
02:31PM 37.1061 -76.7272 211° Southwest 401 461 34,000  Level Washington Center
02:32PM 37.0117 -76.7961 210° Southwest 401 461 34,000  Level Washington Center
02:33PM 36.9169 -76.8647 210° Southwest 401 461 34,000  Level Washington Center
02:34PM 36.8225 -76.9333 210° Southwest 401 461 34,000  Level Washington Center
02:35PM 36.7300 -77.0017 211° Southwest 401 461 34,000  Level Washington Center
02:36PM 36.6414 -77.0778 215° Southwest 401 461 34,000  Level Washington Center
02:37PM 36.5569 -77.1614 219° Southwest 396 456 34,000  Level Washington Center
02:38PM 36.4722 -77.2450 218° Southwest 396 456 34,000  Level Washington Center
02:39PM 36.3833 -77.3258 216° Southwest 396 456 34,000  Level Washington Center
02:40PM 36.2967 -77.4064 217° Southwest 396 456 34,000  Level Washington Center
02:41PM 36.2161 -77.4867 219° Southwest 390 449 34,000  Level Washington Center
02:42PM 36.1294 -77.5669 217° Southwest 390 449 34,000  Level Washington Center
02:43PM 36.0425 -77.6469 217° Southwest 395 455 34,000  Level Washington Center
02:44PM 35.9536 -77.7242 215° Southwest 395 455 34,000  Level Washington Center
02:45PM 35.8644 -77.7961 213° Southwest 390 449 34,000  Level Washington Center
02:46PM 35.7736 -77.8653 212° Southwest 390 449 34,000  Level Washington Center
02:47PM 35.6844 -77.9369 213° Southwest 385 443 34,000  Level Washington Center
02:48PM 35.5933 -78.0058 212° Southwest 390 449 34,000  Level Washington Center
02:49PM 35.5022 -78.0744 212° Southwest 390 449 34,000  Level Washington Center
02:50PM 35.4111 -78.1481 213° Southwest 395 455 34,000  Level Washington Center
02:51PM 35.3178 -78.2164 211° Southwest 395 455 34,000  Level Washington Center
02:52PM 35.2369 -78.2825 214° Southwest 395 455 34,000  Level Washington Center
02:53PM 35.1436 -78.3531 212° Southwest 395 455 34,000  Level Washington Center
02:54PM 35.0542 -78.4236 213° Southwest 395 455 34,000  Level Washington Center
02:57PM 34.8556 -78.5742 212° Southwest 387 445 34,000  Level Jacksonville Center
02:58PM 34.7639 -78.6419 211° Southwest 387 445 34,000  Level Jacksonville Center
02:59PM 34.6725 -78.7147 213° Southwest 394 453 34,000  Level Jacksonville Center
03:00PM 34.5811 -78.7847 212° Southwest 394 453 34,000  Level Jacksonville Center
03:01PM 34.4794 -78.8703 215° Southwest 400 460 34,000  Level Jacksonville Center
03:02PM 34.3878 -78.9372 211° Southwest 400 460 34,000  Level Jacksonville Center
03:03PM 34.3022 -79.0014 212° Southwest 407 468 34,000  Level Jacksonville Center
03:04PM 34.2083 -79.0736 212° Southwest 402 463 34,000  Level Jacksonville Center
03:05PM 34.1106 -79.1456 211° Southwest 402 463 34,000  Level Jacksonville Center
03:06PM 34.0167 -79.2172 212° Southwest 402 463 34,000  Level Jacksonville Center
03:07PM 33.9183 -79.2864 210° Southwest 402 463 34,000  Level Jacksonville Center
03:08PM 33.8225 -79.3603 213° Southwest 407 468 34,000 -480 Level Jacksonville Center
03:09PM 33.7161 -79.4344 210° Southwest 404 465 33,100 -1,380 Descending Jacksonville Center
03:10PM 33.6197 -79.5056 212° Southwest 398 458 31,300 -1,620 Descending Jacksonville Center
03:11PM 33.5217 -79.5792 212° Southwest 404 465 29,900 -660 Descending Jacksonville Center
03:12PM 33.4256 -79.6522 212° Southwest 404 465 30,000  Climbing Jacksonville Center
03:13PM 33.3250 -79.7231 210° Southwest 409 471 30,000  Level Jacksonville Center
03:14PM 33.2389 -79.7883 212° Southwest 409 471 30,000  Level Jacksonville Center
03:15PM 33.1364 -79.8614 211° Southwest 419 482 30,000  Level Jacksonville Center
03:16PM 33.0358 -79.9317 210° Southwest 425 489 30,000  Level Jacksonville Center
03:17PM 32.9353 -80.0042 211° Southwest 425 489 30,000  Level Jacksonville Center
03:18PM 32.8347 -80.0817 213° Southwest 425 489 30,000  Level Jacksonville Center
03:19PM 32.7383 -80.1611 215° Southwest 425 489 30,000  Level Jacksonville Center
03:20PM 32.6397 -80.2381 213° Southwest 430 495 30,000  Level Jacksonville Center
03:21PM 32.5369 -80.3150 212° Southwest 430 495 30,000 -240 Level Jacksonville Center
03:22PM 32.4383 -80.3942 214° Southwest 435 501 29,600 -1,200 Descending Jacksonville Center
03:23PM 32.3397 -80.4706 213° Southwest 435 501 27,600 -1,920 Descending Jacksonville Center
03:24PM 32.2469 -80.5394 212° Southwest 424 488 25,800 -1,800 Descending Jacksonville Center
03:25PM 32.1583 -80.6081 213° Southwest 404 465 24,000 -1,800 Descending Jacksonville Center
03:26PM 32.0681 -80.6836 215° Southwest 376 433 22,200 -1,740 Descending Jacksonville Center
03:27PM 31.9897 -80.7419 212° Southwest 369 425 20,600 -1,140 Descending Jacksonville Center
03:28PM 31.8967 -80.8103 212° Southwest 364 419 20,000 -300 Descending Jacksonville Center
03:29PM 31.8144 -80.8731 213° Southwest 367 422 20,000  Level Jacksonville Center
03:30PM 31.7400 -80.9286 212° Southwest 367 422 20,000  Level Jacksonville Center
03:31PM 31.6472 -80.9989 213° Southwest 367 422 20,000 -180 Level Jacksonville Center
03:32PM 31.5750 -81.0539 213° Southwest 367 422 19,700 -1,080 Descending Jacksonville Center
03:33PM 31.4903 -81.1311 218° Southwest 362 417 17,900 -1,560 Descending Jacksonville Center
03:34PM 31.4183 -81.2031 220° Southwest 353 406 16,600 -1,380 Descending Jacksonville Center
03:35PM 31.3544 -81.2675 221° Southwest 348 400 15,200 -1,440 Descending Jacksonville Center
03:36PM 31.2736 -81.3200 209° Southwest 348 400 13,800 -1,440 Descending Jacksonville Center
03:37PM 31.1947 -81.3650 206° Southwest 331 381 12,400 -1,440 Descending Jacksonville Center
03:38PM 31.1181 -81.4097 207° Southwest 320 368 11,000 -1,200 Descending Jacksonville Center
03:39PM 31.0331 -81.4597 207° Southwest 299 344 10,000 -540 Descending Jacksonville Center
03:40PM 30.9731 -81.5019 211° Southwest 302 348 10,000 -720 Level Jacksonville Center
03:41PM 30.9044 -81.5464 209° Southwest 297 342 8,700 -1,680 Descending Jacksonville Center
03:42PM 30.8403 -81.5861 208° Southwest 284 327 6,700 -1,980 Descending Jacksonville Center
03:43PM 30.7781 -81.6256 209° Southwest 273 314 4,800 -1,980 Descending Jacksonville Center
03:44PM 30.7178 -81.6650 209° Southwest 262 302 2,800 -1,440 Descending Jacksonville Center
03:45PM 30.6578 -81.7019 208° Southwest 257 296 2,000 -840 Descending Jacksonville Center